Time;durP1;ratioP1;P1;durP2;ratioP2;P2;SDS_P1;SDS_P2;PMS_P1;PMS_P2;Temp;Humidity;BMP_temperature;BMP_pressure;BME280_temperature;BME280_humidity;BME280_pressure;Samples;Min_cycle;Max_cycle;Signal;HPM_P1;HPM_P2
2023/07/25 00:01:41;;;;;;;5.07;3.93;;;15.10;1.00;;;;;;5078864;28;20531;-58
2023/07/25 00:04:08;;;;;;;5.90;3.93;;;15.10;1.00;;;;;;5078300;28;20498;-59
2023/07/25 00:06:36;;;;;;;6.37;4.53;;;15.10;1.00;;;;;;5078594;28;20436;-59
2023/07/25 00:09:03;;;;;;;5.93;4.60;;;15.20;1.00;;;;;;5078558;28;20461;-59
2023/07/25 00:11:32;;;;;;;7.17;5.00;;;15.10;1.00;;;;;;5078390;28;20831;-59
2023/07/25 00:13:59;;;;;;;7.90;5.00;;;15.10;1.00;;;;;;5077687;28;20468;-59
2023/07/25 00:16:26;;;;;;;7.50;5.20;;;15.00;1.00;;;;;;5077847;28;20432;-59
2023/07/25 00:18:53;;;;;;;6.87;5.63;;;15.00;1.00;;;;;;5078269;28;20462;-59
2023/07/25 00:21:21;;;;;;;8.23;6.20;;;14.90;1.00;;;;;;5078015;28;20584;-59
2023/07/25 00:23:48;;;;;;;7.60;6.80;;;14.80;1.00;;;;;;5078309;28;20457;-59
2023/07/25 00:26:15;;;;;;;8.50;7.50;;;14.70;21.00;;;;;;5077425;28;20465;-59
2023/07/25 00:28:43;;;;;;;10.93;7.17;;;14.70;99.90;;;;;;5077776;28;20555;-59
2023/07/25 00:31:11;;;;;;;12.63;7.27;;;14.70;99.90;;;;;;5078357;28;20489;-56
2023/07/25 00:33:38;;;;;;;9.07;6.07;;;14.70;1.00;;;;;;5077997;28;20878;-56
2023/07/25 00:36:06;;;;;;;7.93;5.73;;;14.70;1.00;;;;;;5077573;28;20940;-57
2023/07/25 00:38:33;;;;;;;8.03;5.77;;;14.80;1.00;;;;;;5077846;28;20468;-56
2023/07/25 00:41:00;;;;;;;7.87;5.90;;;14.80;1.00;;;;;;5077886;28;20835;-57
2023/07/25 00:43:27;;;;;;;8.57;6.40;;;14.70;1.00;;;;;;5077980;28;20465;-57
2023/07/25 00:45:56;;;;;;;6.93;5.73;;;14.70;99.90;;;;;;5077235;28;20457;-58
2023/07/25 00:48:23;;;;;;;6.63;5.90;;;14.60;99.90;;;;;;5077217;28;20496;-56
2023/07/25 00:50:52;;;;;;;6.87;5.47;;;14.60;1.00;;;;;;5077542;28;20465;-57
2023/07/25 00:53:19;;;;;;;10.20;5.90;;;14.70;1.00;;;;;;5077693;28;20453;-57
2023/07/25 00:55:47;;;;;;;9.53;5.87;;;14.80;1.00;;;;;;5077848;28;20559;-57
2023/07/25 00:58:15;;;;;;;9.20;5.47;;;14.80;99.90;;;;;;5076401;28;20435;-56
2023/07/25 01:00:44;;;;;;;9.23;4.93;;;14.80;99.90;;;;;;5075959;28;20457;-58
2023/07/25 01:03:13;;;;;;;6.40;5.30;;;14.80;99.90;;;;;;5077614;28;20526;-57
2023/07/25 01:05:45;;;;;;;7.60;5.97;;;14.70;38.50;;;;;;5077678;28;20432;-57
2023/07/25 01:08:12;;;;;;;7.10;5.73;;;14.70;88.90;;;;;;5077430;28;20508;-57
2023/07/25 01:10:39;;;;;;;8.50;5.70;;;14.70;36.70;;;;;;5077206;28;20464;-58
2023/07/25 01:13:06;;;;;;;6.90;4.90;;;14.70;99.90;;;;;;5077276;28;20454;-57
2023/07/25 01:15:35;;;;;;;7.47;5.17;;;14.60;99.90;;;;;;5077561;28;20559;-55
2023/07/25 01:18:03;;;;;;;11.57;4.70;;;14.60;99.90;;;;;;5077125;28;20493;-57
2023/07/25 01:20:33;;;;;;;8.90;4.73;;;14.50;99.90;;;;;;5077219;28;20465;-57
2023/07/25 01:23:02;;;;;;;7.80;5.07;;;14.60;1.00;;;;;;5077361;28;20525;-57
2023/07/25 01:25:31;;;;;;;6.37;5.20;;;14.60;99.90;;;;;;5077213;28;20461;-56
2023/07/25 01:27:58;;;;;;;6.00;4.30;;;14.60;1.00;;;;;;5077045;28;20501;-56
2023/07/25 01:30:25;;;;;;;6.10;5.50;;;14.70;1.00;;;;;;5077181;28;20873;-57
2023/07/25 01:32:53;;;;;;;5.77;4.50;;;14.60;99.90;;;;;;5064754;28;20882;-56
2023/07/25 01:35:20;;;;;;;6.33;5.00;;;14.60;99.90;;;;;;5057309;28;20517;-56
2023/07/25 01:37:47;;;;;;;9.27;5.83;;;14.50;99.90;;;;;;5056522;28;20855;-57
2023/07/25 01:40:15;;;;;;;6.70;5.30;;;14.60;1.00;;;;;;5056556;28;20566;-56
2023/07/25 01:42:43;;;;;;;8.37;5.30;;;14.50;1.00;;;;;;5056964;28;20967;-58
2023/07/25 01:45:12;;;;;;;6.97;6.20;;;14.40;1.90;;;;;;5057300;28;20802;-57
2023/07/25 01:47:39;;;;;;;13.20;5.60;;;14.40;1.00;;;;;;5057032;28;20462;-57
2023/07/25 01:50:07;;;;;;;10.87;5.10;;;14.40;1.00;;;;;;5056400;28;20509;-56
2023/07/25 01:52:34;;;;;;;6.30;5.50;;;14.40;99.90;;;;;;5056770;28;20518;-57
2023/07/25 01:55:02;;;;;;;7.93;5.27;;;14.50;1.00;;;;;;5056883;28;20465;-58
2023/07/25 01:57:29;;;;;;;7.63;5.53;;;14.40;99.90;;;;;;5057258;28;20788;-54
2023/07/25 01:59:58;;;;;;;8.33;5.47;;;14.40;99.90;;;;;;5056828;28;20616;-57
2023/07/25 02:02:25;;;;;;;8.23;5.97;;;14.40;99.90;;;;;;5056788;28;20461;-58
2023/07/25 02:04:52;;;;;;;7.60;5.67;;;14.30;99.90;;;;;;5056812;28;20748;-55
2023/07/25 02:07:20;;;;;;;6.67;5.60;;;14.30;1.00;;;;;;5057202;28;20459;-57
2023/07/25 02:09:47;;;;;;;9.20;6.93;;;14.30;99.90;;;;;;5057122;28;20463;-57
2023/07/25 02:12:14;;;;;;;7.77;5.80;;;14.20;1.00;;;;;;5057444;28;20466;-55
2023/07/25 02:14:42;;;;;;;7.50;5.97;;;14.20;99.90;;;;;;5060422;28;20494;-56
2023/07/25 02:17:10;;;;;;;7.53;5.43;;;14.30;1.00;;;;;;5060970;28;20466;-56
2023/07/25 02:19:38;;;;;;;8.97;6.10;;;14.20;99.90;;;;;;5060463;28;20466;-56
2023/07/25 02:22:06;;;;;;;6.70;5.67;;;14.20;1.00;;;;;;5060170;28;20489;-57
2023/07/25 02:24:33;;;;;;;9.80;7.00;;;14.30;96.20;;;;;;5062197;28;20569;-57
2023/07/25 02:27:00;;;;;;;8.50;6.13;;;14.40;99.90;;;;;;5080470;28;20560;-56
2023/07/25 02:29:27;;;;;;;7.80;7.00;;;14.50;99.90;;;;;;5080642;28;20436;-57
2023/07/25 02:31:55;;;;;;;8.33;6.70;;;14.50;87.10;;;;;;5080475;28;20453;-57
2023/07/25 02:34:23;;;;;;;7.67;6.40;;;14.50;99.90;;;;;;5080174;28;20551;-57
2023/07/25 02:36:50;;;;;;;10.20;6.93;;;14.50;31.10;;;;;;5080284;28;20501;-57
2023/07/25 02:39:17;;;;;;;8.10;6.60;;;14.50;99.90;;;;;;5080147;28;20563;-57
2023/07/25 02:41:45;;;;;;;8.03;6.60;;;14.40;99.90;;;;;;5080228;28;20831;-57
2023/07/25 02:44:12;;;;;;;9.07;7.27;;;14.40;99.90;;;;;;5079993;28;20497;-56
2023/07/25 02:46:39;;;;;;;9.83;6.90;;;14.30;99.90;;;;;;5080118;28;20459;-58
2023/07/25 02:49:06;;;;;;;7.43;6.27;;;14.30;1.00;;;;;;5079990;28;20881;-55
2023/07/25 02:51:35;;;;;;;9.27;7.80;;;14.30;1.00;;;;;;5079729;28;20485;-57
2023/07/25 02:54:02;;;;;;;20.10;8.10;;;14.20;99.90;;;;;;5079636;28;20495;-55
2023/07/25 02:56:29;;;;;;;9.87;7.07;;;14.20;1.00;;;;;;5079705;28;20460;-58
2023/07/25 02:58:57;;;;;;;9.13;6.53;;;14.10;1.00;;;;;;5079208;28;20547;-58
2023/07/25 03:01:24;;;;;;;9.73;7.20;;;14.00;1.00;;;;;;5079774;28;20559;-57
2023/07/25 03:03:51;;;;;;;7.70;6.90;;;14.00;1.00;;;;;;5079674;28;20887;-56
2023/07/25 03:06:18;;;;;;;11.50;7.03;;;13.80;99.90;;;;;;5079726;28;20484;-57
2023/07/25 03:08:47;;;;;;;9.13;7.53;;;13.70;1.00;;;;;;5079506;28;20497;-57
2023/07/25 03:11:14;;;;;;;15.97;6.90;;;13.70;1.00;;;;;;5079431;28;20467;-58
2023/07/25 03:13:42;;;;;;;9.10;6.50;;;13.70;1.00;;;;;;5079824;28;20520;-57
2023/07/25 03:16:09;;;;;;;13.03;6.97;;;13.70;99.90;;;;;;5079340;28;20461;-56
2023/07/25 03:18:36;;;;;;;11.43;8.07;;;13.70;1.00;;;;;;5079288;28;20784;-57
2023/07/25 03:21:04;;;;;;;7.43;6.67;;;13.70;1.00;;;;;;5079476;28;20442;-56
2023/07/25 03:23:31;;;;;;;8.50;7.60;;;13.60;1.00;;;;;;5078081;28;20486;-57
2023/07/25 03:25:59;;;;;;;8.37;6.70;;;13.60;99.90;;;;;;5078779;28;20464;-57
2023/07/25 03:28:27;;;;;;;9.07;7.47;;;13.60;99.90;;;;;;5078730;28;20552;-57
2023/07/25 03:30:54;;;;;;;10.90;8.10;;;13.60;99.90;;;;;;5079195;28;20945;-58
2023/07/25 03:33:21;;;;;;;9.27;8.07;;;13.50;99.90;;;;;;5079283;28;20436;-58
2023/07/25 03:35:48;;;;;;;8.37;7.07;;;13.50;99.90;;;;;;5079201;28;20543;-57
2023/07/25 03:38:15;;;;;;;9.70;7.90;;;13.50;13.50;;;;;;5078689;28;20436;-57
2023/07/25 03:40:43;;;;;;;11.93;7.63;;;13.40;1.00;;;;;;5079055;28;20520;-58
2023/07/25 03:43:12;;;;;;;10.50;7.30;;;13.40;99.90;;;;;;5078945;28;20942;-57
2023/07/25 03:45:39;;;;;;;8.67;6.87;;;13.30;99.90;;;;;;5078881;28;20518;-58
2023/07/25 03:48:07;;;;;;;9.70;8.13;;;13.30;1.00;;;;;;5078558;28;20435;-57
2023/07/25 03:50:34;;;;;;;10.10;8.30;;;13.30;1.00;;;;;;5078895;28;20500;-58
2023/07/25 03:53:02;;;;;;;12.23;8.37;;;13.30;1.00;;;;;;5078222;28;20949;-57
2023/07/25 03:55:29;;;;;;;11.23;9.57;;;13.30;1.00;;;;;;5078550;28;20465;-57
2023/07/25 03:57:57;;;;;;;10.17;8.60;;;13.20;1.00;;;;;;5078128;28;20473;-57
2023/07/25 04:00:25;;;;;;;10.17;9.17;;;13.20;20.00;;;;;;5077808;28;20484;-57
2023/07/25 04:02:52;;;;;;;12.60;10.40;;;13.20;51.50;;;;;;5077970;28;20486;-57
2023/07/25 04:05:20;;;;;;;12.17;10.03;;;13.10;39.40;;;;;;5078496;28;20469;-57
2023/07/25 04:07:47;;;;;;;13.83;9.90;;;13.10;99.90;;;;;;5078546;28;20556;-57
2023/07/25 04:10:14;;;;;;;13.80;9.80;;;13.00;99.90;;;;;;5078294;28;20504;-57
2023/07/25 04:12:41;;;;;;;15.20;11.73;;;13.00;99.90;;;;;;5078448;28;20461;-57
2023/07/25 04:15:09;;;;;;;13.93;12.50;;;13.00;99.90;;;;;;5077950;28;20530;-57
2023/07/25 04:17:38;;;;;;;15.00;12.50;;;13.00;99.90;;;;;;5078250;28;20881;-58
2023/07/25 04:20:06;;;;;;;18.33;14.57;;;13.00;99.90;;;;;;5077952;28;20465;-58
2023/07/25 04:22:34;;;;;;;20.87;14.87;;;13.00;99.90;;;;;;5077933;28;20467;-58
2023/07/25 04:25:01;;;;;;;19.47;15.43;;;13.00;99.90;;;;;;5077620;28;20792;-57
2023/07/25 04:27:30;;;;;;;21.03;16.97;;;13.00;99.90;;;;;;5078335;28;20465;-58
2023/07/25 04:29:58;;;;;;;18.13;15.27;;;13.00;99.90;;;;;;5077966;28;20746;-58
2023/07/25 04:32:26;;;;;;;20.80;16.43;;;13.10;99.90;;;;;;5077942;28;20468;-58
2023/07/25 04:34:54;;;;;;;17.03;15.13;;;13.20;99.90;;;;;;5077666;28;20470;-57
2023/07/25 04:37:21;;;;;;;22.73;16.10;;;13.20;99.90;;;;;;5077893;28;20462;-58
2023/07/25 04:39:49;;;;;;;17.37;15.67;;;13.30;99.90;;;;;;5078364;28;20493;-57
2023/07/25 04:42:16;;;;;;;17.80;15.40;;;13.40;99.90;;;;;;5077900;28;20798;-58
2023/07/25 04:44:45;;;;;;;24.50;16.90;;;13.40;99.90;;;;;;5077798;28;20461;-57
2023/07/25 04:47:12;;;;;;;19.83;16.50;;;13.50;99.90;;;;;;5077923;28;20566;-57
2023/07/25 04:49:39;;;;;;;20.40;16.50;;;13.50;99.90;;;;;;5077806;28;20512;-57
2023/07/25 04:52:08;;;;;;;19.70;17.20;;;13.60;99.90;;;;;;5077009;28;20489;-57
2023/07/25 04:54:35;;;;;;;18.13;14.77;;;13.50;99.90;;;;;;5077444;28;20460;-57
2023/07/25 04:57:03;;;;;;;17.57;15.77;;;13.60;99.90;;;;;;5078010;28;20571;-57
2023/07/25 04:59:31;;;;;;;22.80;15.20;;;13.60;99.90;;;;;;5077647;28;20468;-57
2023/07/25 05:01:59;;;;;;;16.60;13.70;;;13.70;99.90;;;;;;5077237;28;20471;-57
2023/07/25 05:04:27;;;;;;;17.23;15.13;;;13.70;99.90;;;;;;5077312;28;20579;-57
2023/07/25 05:06:55;;;;;;;14.33;11.67;;;13.70;99.90;;;;;;5077432;28;20466;-57
2023/07/25 05:09:23;;;;;;;15.47;13.03;;;13.60;99.90;;;;;;5077649;28;20512;-56
2023/07/25 05:11:51;;;;;;;16.70;12.53;;;13.60;99.90;;;;;;5077607;28;21482;-57
2023/07/25 05:14:19;;;;;;;16.27;13.10;;;13.60;99.90;;;;;;5077280;28;20929;-57
2023/07/25 05:16:46;;;;;;;16.40;12.73;;;13.60;99.90;;;;;;5077028;28;20551;-58
2023/07/25 05:19:13;;;;;;;17.57;12.27;;;13.60;99.90;;;;;;5077594;28;20469;-57
2023/07/25 05:21:40;;;;;;;11.43;9.93;;;13.60;99.90;;;;;;5072184;28;20958;-58
2023/07/25 05:24:08;;;;;;;12.13;10.40;;;13.60;99.90;;;;;;5065577;28;20571;-58
2023/07/25 05:26:37;;;;;;;12.00;9.60;;;13.60;99.90;;;;;;5077057;28;20467;-57
2023/07/25 05:29:04;;;;;;;13.00;10.13;;;13.80;99.90;;;;;;5077148;28;20503;-58
2023/07/25 05:31:31;;;;;;;15.20;9.17;;;14.00;99.90;;;;;;5076232;28;20552;-57
2023/07/25 05:33:59;;;;;;;11.57;8.53;;;13.90;99.90;;;;;;5076320;28;20527;-57
2023/07/25 05:36:26;;;;;;;9.67;8.67;;;14.10;99.90;;;;;;5076199;28;20465;-56
2023/07/25 05:38:53;;;;;;;12.70;8.30;;;14.20;99.90;;;;;;5077100;28;20461;-59
2023/07/25 05:41:20;;;;;;;10.30;6.77;;;14.50;99.90;;;;;;5077321;28;20440;-59
2023/07/25 05:43:49;;;;;;;13.93;7.53;;;14.70;99.90;;;;;;5076412;28;20486;-59
2023/07/25 05:46:16;;;;;;;9.87;6.40;;;14.80;99.90;;;;;;5077334;28;20436;-59
2023/07/25 05:48:43;;;;;;;8.23;5.43;;;14.70;1.00;;;;;;5080928;28;20616;-59
2023/07/25 05:51:11;;;;;;;6.30;5.63;;;14.80;99.90;;;;;;5080919;28;20607;-59
2023/07/25 05:53:38;;;;;;;9.00;5.30;;;14.80;1.00;;;;;;5081000;28;20461;-59
2023/07/25 05:56:05;;;;;;;9.37;5.40;;;14.60;99.90;;;;;;5080621;28;20461;-59
2023/07/25 05:58:32;;;;;;;6.60;4.90;;;14.90;99.90;;;;;;5080995;28;20466;-58
2023/07/25 06:01:01;;;;;;;5.53;4.27;;;14.90;55.00;;;;;;5081076;28;20462;-59
2023/07/25 06:03:29;;;;;;;6.43;4.27;;;15.20;40.70;;;;;;5081033;28;20580;-59
2023/07/25 06:05:56;;;;;;;6.73;3.77;;;15.40;1.00;;;;;;5079787;28;20878;-59
2023/07/25 06:08:23;;;;;;;9.30;4.40;;;15.50;1.00;;;;;;5080663;28;20485;-59
2023/07/25 06:10:50;;;;;;;7.93;4.00;;;15.50;1.00;;;;;;5081006;28;20489;-59
2023/07/25 06:13:17;;;;;;;6.37;3.93;;;15.40;1.00;;;;;;5081148;28;20492;-59
2023/07/25 06:15:45;;;;;;;7.00;4.27;;;15.40;1.00;;;;;;5080700;28;20560;-59
2023/07/25 06:18:13;;;;;;;6.67;3.80;;;15.20;1.00;;;;;;5080736;28;20833;-59
2023/07/25 06:20:40;;;;;;;9.23;3.30;;;15.30;1.00;;;;;;5080697;28;20551;-59
2023/07/25 06:23:08;;;;;;;7.67;3.37;;;15.20;1.00;;;;;;5080432;28;20471;-59
2023/07/25 06:25:35;;;;;;;8.03;3.67;;;15.20;1.00;;;;;;5080810;28;20461;-59
2023/07/25 06:28:04;;;;;;;5.43;3.17;;;15.10;1.00;;;;;;5080366;28;20829;-59
2023/07/25 06:30:32;;;;;;;6.57;3.40;;;15.30;1.00;;;;;;5080246;28;20594;-59
2023/07/25 06:32:59;;;;;;;8.20;3.97;;;15.30;1.00;;;;;;5079752;28;20785;-60
2023/07/25 06:35:28;;;;;;;8.20;4.07;;;15.60;1.00;;;;;;5062068;28;20877;-59
2023/07/25 06:37:55;;;;;;;7.80;3.87;;;15.70;1.00;;;;;;5060289;28;20497;-60
2023/07/25 06:40:22;;;;;;;6.43;3.40;;;15.80;1.00;;;;;;5059741;28;20932;-60
2023/07/25 06:42:52;;;;;;;7.60;3.07;;;15.90;1.00;;;;;;5060346;28;20462;-60
2023/07/25 06:45:20;;;;;;;7.57;3.90;;;16.00;1.00;;;;;;5060264;28;20985;-61
2023/07/25 06:47:47;;;;;;;7.70;3.53;;;16.00;1.00;;;;;;5059997;28;20838;-61
2023/07/25 06:50:14;;;;;;;10.10;4.07;;;15.90;1.00;;;;;;5059946;28;20498;-61
2023/07/25 06:52:43;;;;;;;11.70;3.90;;;15.80;1.00;;;;;;5059888;28;20529;-60
2023/07/25 06:55:10;;;;;;;7.87;3.50;;;15.90;1.00;;;;;;5059996;28;20794;-61
2023/07/25 06:57:37;;;;;;;7.67;3.50;;;15.90;1.00;;;;;;5059366;28;20872;-60
2023/07/25 07:00:07;;;;;;;7.33;3.50;;;16.20;1.00;;;;;;5058351;28;20493;-61
2023/07/25 07:02:35;;;;;;;8.63;3.30;;;16.30;1.00;;;;;;5059113;28;20466;-62
2023/07/25 07:05:02;;;;;;;6.20;3.47;;;15.70;1.00;;;;;;5059724;28;20469;-62
2023/07/25 07:07:29;;;;;;;6.63;3.53;;;15.60;1.00;;;;;;5059024;28;20837;-62
2023/07/25 07:09:58;;;;;;;8.07;3.40;;;15.50;1.00;;;;;;5057732;28;20722;-62
2023/07/25 07:12:25;;;;;;;5.93;3.80;;;15.60;1.00;;;;;;5058123;28;20462;-61
2023/07/25 07:14:52;;;;;;;7.27;3.53;;;15.90;1.00;;;;;;5058215;28;20486;-62
2023/07/25 07:17:19;;;;;;;4.80;3.80;;;15.90;1.00;;;;;;5058874;28;20462;-61
2023/07/25 07:19:47;;;;;;;8.70;4.03;;;16.00;1.00;;;;;;5058690;28;20766;-62
2023/07/25 07:22:14;;;;;;;7.30;3.50;;;16.10;1.00;;;;;;5058264;28;20520;-61
2023/07/25 07:24:42;;;;;;;10.13;3.17;;;16.40;1.00;;;;;;5059396;28;20809;-61
2023/07/25 07:27:10;;;;;;;5.83;3.30;;;16.70;1.00;;;;;;5059291;28;20458;-61
2023/07/25 07:29:38;;;;;;;7.97;4.00;;;16.50;99.90;;;;;;5058530;28;20462;-61
2023/07/25 07:32:06;;;;;;;5.87;3.17;;;16.70;1.00;;;;;;5057356;28;20890;-61
2023/07/25 07:34:33;;;;;;;8.27;3.83;;;17.40;1.00;;;;;;5071840;28;20456;-61
2023/07/25 07:37:00;;;;;;;5.33;3.00;;;17.10;99.90;;;;;;5078103;28;20500;-61
2023/07/25 07:39:27;;;;;;;4.63;3.17;;;16.70;99.90;;;;;;5077269;28;20468;-61
2023/07/25 07:41:54;;;;;;;5.37;2.97;;;16.70;99.90;;;;;;5078449;28;20468;-61
2023/07/25 07:44:23;;;;;;;6.70;3.70;;;16.70;99.90;;;;;;5078307;28;20489;-62
2023/07/25 07:46:50;;;;;;;5.80;3.37;;;17.00;99.90;;;;;;5078620;28;20519;-60
2023/07/25 07:49:17;;;;;;;7.43;3.63;;;16.80;99.90;;;;;;5077188;28;20493;-60
2023/07/25 07:51:44;;;;;;;9.90;3.57;;;16.20;99.90;;;;;;5076980;28;20489;-61
2023/07/25 07:54:12;;;;;;;5.13;3.30;;;15.70;99.90;;;;;;5066696;28;20505;-60
2023/07/25 07:56:39;;;;;;;6.63;3.47;;;15.90;1.00;;;;;;5056887;28;20437;-62
2023/07/25 07:59:08;;;;;;;6.73;3.90;;;16.00;99.90;;;;;;5056160;28;20854;-61
2023/07/25 08:01:36;;;;;;;6.23;3.37;;;15.90;99.90;;;;;;5056307;28;20472;-60
2023/07/25 08:04:03;;;;;;;5.80;3.60;;;16.10;99.90;;;;;;5057126;28;20529;-60
2023/07/25 08:06:31;;;;;;;5.30;3.37;;;16.00;99.90;;;;;;5059412;28;20476;-60
2023/07/25 08:08:58;;;;;;;6.03;3.87;;;16.10;99.90;;;;;;5059435;28;20440;-60
2023/07/25 08:11:25;;;;;;;7.30;3.77;;;16.60;99.90;;;;;;5057724;28;20565;-61
2023/07/25 08:13:52;;;;;;;10.93;3.50;;;16.80;99.90;;;;;;5056620;28;20461;-60
2023/07/25 08:16:20;;;;;;;4.80;3.00;;;16.50;99.90;;;;;;5058371;28;20516;-62
2023/07/25 08:18:48;;;;;;;3.90;2.80;;;16.70;99.90;;;;;;5059255;28;20854;-60
2023/07/25 08:21:15;;;;;;;5.67;3.10;;;17.00;99.90;;;;;;5075582;28;20561;-60
2023/07/25 08:23:43;;;;;;;4.43;3.23;;;17.00;99.90;;;;;;5075138;28;20742;-60
2023/07/25 08:26:10;;;;;;;7.53;2.77;;;17.20;99.90;;;;;;5075330;28;20940;-60
2023/07/25 08:28:37;;;;;;;9.47;3.17;;;17.30;99.90;;;;;;5059405;28;20473;-61
2023/07/25 08:31:06;;;;;;;8.70;2.90;;;17.40;99.90;;;;;;5056620;28;20565;-61
2023/07/25 08:33:34;;;;;;;6.37;3.27;;;17.60;99.90;;;;;;5061532;28;20502;-60
2023/07/25 08:36:03;;;;;;;5.13;3.10;;;17.30;99.90;;;;;;5059063;28;20751;-59
2023/07/25 08:38:31;;;;;;;6.17;3.00;;;17.60;99.90;;;;;;5072357;28;20889;-62
2023/07/25 08:41:03;;;;;;;7.20;3.37;;;17.80;99.90;;;;;;5075417;28;20497;-60
2023/07/25 08:43:33;;;;;;;5.30;3.30;;;17.20;99.90;;;;;;5077350;28;20458;-61
2023/07/25 08:46:03;;;;;;;5.03;3.03;;;17.50;99.90;;;;;;5077056;28;20453;-60
2023/07/25 08:48:32;;;;;;;3.67;2.93;;;18.10;99.90;;;;;;5075773;28;20460;-61
2023/07/25 08:51:02;;;;;;;5.40;3.40;;;18.10;99.90;;;;;;5076595;28;20496;-61
2023/07/25 08:53:30;;;;;;;8.23;3.40;;;18.10;99.90;;;;;;5078102;28;20492;-60
2023/07/25 08:55:59;;;;;;;5.70;2.80;;;18.40;99.90;;;;;;5077326;28;20902;-60
2023/07/25 08:58:27;;;;;;;3.10;2.50;;;18.50;99.90;;;;;;5077475;28;20808;-60
2023/07/25 09:00:55;;;;;;;3.30;2.50;;;18.20;99.90;;;;;;5077280;28;20575;-61
2023/07/25 09:03:23;;;;;;;5.13;2.90;;;17.40;99.90;;;;;;5080071;28;20538;-66
2023/07/25 09:05:51;;;;;;;4.23;2.30;;;17.30;99.90;;;;;;5080409;28;20489;-66
2023/07/25 09:08:19;;;;;;;6.80;3.53;;;17.20;99.90;;;;;;5080462;28;20485;-66
2023/07/25 09:10:48;;;;;;;5.80;2.87;;;17.40;99.90;;;;;;5078920;28;20461;-66
2023/07/25 09:13:15;;;;;;;5.87;2.20;;;17.80;99.90;;;;;;5081328;28;20645;-66
2023/07/25 09:15:42;;;;;;;3.37;2.60;;;18.00;99.90;;;;;;5087350;28;20479;-66
2023/07/25 09:18:10;;;;;;;6.70;3.40;;;18.20;99.90;;;;;;5079847;28;20544;-60
2023/07/25 09:20:38;;;;;;;3.80;3.10;;;18.30;99.90;;;;;;5076621;28;20457;-60
2023/07/25 09:23:05;;;;;;;4.83;3.37;;;18.50;99.90;;;;;;5076477;28;20462;-59
2023/07/25 09:25:34;;;;;;;3.43;2.50;;;18.70;99.90;;;;;;5077405;28;20499;-59
2023/07/25 09:28:01;;;;;;;5.43;3.40;;;18.30;99.90;;;;;;5076888;28;20508;-60
2023/07/25 09:30:29;;;;;;;3.93;2.73;;;18.50;99.90;;;;;;5077195;28;20443;-60
2023/07/25 09:32:56;;;;;;;3.60;2.63;;;18.40;99.90;;;;;;5077177;28;20556;-59
2023/07/25 09:35:24;;;;;;;3.20;2.70;;;18.20;99.90;;;;;;5076763;28;20527;-60
2023/07/25 09:37:55;;;;;;;4.90;2.73;;;17.70;99.90;;;;;;5075987;28;20511;-60
2023/07/25 09:40:23;;;;;;;7.03;3.20;;;17.90;99.90;;;;;;5076073;28;20469;-59
2023/07/25 09:42:52;;;;;;;4.50;3.20;;;17.80;99.90;;;;;;5077227;28;20486;-65
2023/07/25 09:45:19;;;;;;;6.23;2.73;;;18.10;99.90;;;;;;5089784;28;20572;-65
2023/07/25 09:47:52;;;;;;;9.80;3.70;;;18.30;99.90;;;;;;5087161;28;20457;-65
2023/07/25 09:50:19;;;;;;;6.93;3.30;;;18.10;99.90;;;;;;5084666;28;20467;-65
2023/07/25 09:52:47;;;;;;;4.60;3.13;;;18.00;99.90;;;;;;5079798;28;20499;-65
2023/07/25 09:55:14;;;;;;;6.77;3.43;;;17.80;99.90;;;;;;5078684;28;20488;-66
2023/07/25 09:57:42;;;;;;;5.50;2.70;;;18.00;99.90;;;;;;5064963;28;20497;-66
2023/07/25 10:00:13;;;;;;;7.10;3.70;;;18.00;99.90;;;;;;5061930;28;20440;-66
2023/07/25 10:02:40;;;;;;;6.37;3.27;;;17.60;99.90;;;;;;5065669;28;20469;-65
2023/07/25 10:05:08;;;;;;;5.60;3.37;;;17.50;99.90;;;;;;5088505;28;20495;-65
2023/07/25 10:07:36;;;;;;;3.87;2.93;;;18.30;99.90;;;;;;5073153;28;20477;-64
2023/07/25 10:10:04;;;;;;;4.23;3.27;;;18.90;99.90;;;;;;5068248;28;20546;-65
2023/07/25 10:12:31;;;;;;;5.50;2.33;;;19.40;99.90;;;;;;5062997;28;20458;-65
2023/07/25 10:14:59;;;;;;;4.37;3.00;;;18.90;99.90;;;;;;5059272;28;20537;-65
2023/07/25 10:17:27;;;;;;;3.07;2.77;;;18.20;99.90;;;;;;5064845;28;20552;-66
2023/07/25 10:19:59;;;;;;;3.60;2.67;;;18.80;99.90;;;;;;5063973;28;20458;-64
2023/07/25 10:22:37;;;;;;;5.17;2.83;;;19.00;99.90;;;;;;5065711;28;20466;-64
2023/07/25 10:25:10;;;;;;;5.50;2.90;;;19.20;99.90;;;;;;5064551;28;20559;-65
2023/07/25 10:27:37;;;;;;;4.40;3.27;;;20.10;99.90;;;;;;5062770;28;20525;-65
2023/07/25 10:30:22;;;;;;;4.10;3.33;;;19.80;99.90;;;;;;5062861;28;20466;-66
2023/07/25 10:32:53;;;;;;;4.20;3.00;;;19.80;99.90;;;;;;5066868;28;20455;-63
2023/07/25 10:35:53;;;;;;;5.10;3.53;;;21.10;99.90;;;;;;5071309;28;20469;-65
2023/07/25 10:38:31;;;;;;;3.40;3.10;;;22.10;99.90;;;;;;5063839;28;20451;-65
2023/07/25 10:41:00;;;;;;;3.87;3.00;;;20.60;99.90;;;;;;5067002;28;20508;-65
2023/07/25 10:43:55;;;;;;;4.13;3.27;;;20.30;99.90;;;;;;5063704;28;20462;-65
2023/07/25 10:46:24;;;;;;;3.97;3.67;;;20.00;99.90;;;;;;5072234;28;20494;-65
2023/07/25 10:48:54;;;;;;;4.60;3.20;;;20.90;99.90;;;;;;5072581;28;20481;-66
2023/07/25 10:51:23;;;;;;;3.10;2.77;;;21.40;99.90;;;;;;5068488;28;20799;-66
2023/07/25 10:54:10;;;;;;;5.77;2.80;;;20.70;99.90;;;;;;5070212;28;20863;-66
2023/07/25 10:56:37;;;;;;;5.43;2.97;;;20.80;99.90;;;;;;5070777;28;20462;-65
2023/07/25 10:59:09;;;;;;;5.17;3.07;;;20.60;99.90;;;;;;5062446;28;20481;-66
2023/07/25 11:01:44;;;;;;;5.07;3.10;;;20.00;99.90;;;;;;5062964;28;20494;-66
2023/07/25 11:04:25;;;;;;;4.60;3.07;;;19.40;99.90;;;;;;5061972;28;20876;-66
2023/07/25 11:06:53;;;;;;;3.60;2.67;;;18.70;99.90;;;;;;5062800;28;20440;-66
2023/07/25 11:09:21;;;;;;;4.40;3.40;;;18.40;99.90;;;;;;5061215;28;20440;-67
2023/07/25 11:11:50;;;;;;;4.90;3.40;;;17.90;99.90;;;;;;5067570;28;21010;-66
2023/07/25 11:14:20;;;;;;;4.60;3.00;;;17.70;99.90;;;;;;5081972;28;20479;-66
2023/07/25 11:16:50;;;;;;;6.97;4.00;;;17.70;99.90;;;;;;5085781;28;20461;-66
2023/07/25 11:19:19;;;;;;;9.93;3.53;;;17.40;99.90;;;;;;5082037;28;20459;-66
2023/07/25 11:21:48;;;;;;;7.03;3.70;;;17.20;99.90;;;;;;5070508;28;20481;-67
2023/07/25 11:24:15;;;;;;;5.50;3.90;;;17.10;99.90;;;;;;5064299;28;20557;-66
2023/07/25 11:26:43;;;;;;;6.67;3.67;;;17.10;99.90;;;;;;5065541;28;20525;-66
2023/07/25 11:29:13;;;;;;;6.63;3.13;;;17.10;99.90;;;;;;5063884;28;20852;-67
2023/07/25 11:31:47;;;;;;;4.83;3.57;;;17.10;99.90;;;;;;5064257;28;20748;-67
2023/07/25 11:34:15;;;;;;;10.00;4.00;;;17.10;99.90;;;;;;5062337;28;20461;-67
2023/07/25 11:36:48;;;;;;;9.27;4.30;;;17.20;99.90;;;;;;5067663;28;20817;-67
2023/07/25 11:39:17;;;;;;;6.00;3.80;;;17.20;99.90;;;;;;5064770;28;20807;-68
2023/07/25 11:41:46;;;;;;;4.43;3.40;;;17.10;99.90;;;;;;5063479;28;20972;-69
2023/07/25 11:44:16;;;;;;;4.93;3.37;;;17.00;99.90;;;;;;5067413;28;20440;-68
2023/07/25 11:46:48;;;;;;;5.27;3.53;;;17.00;99.90;;;;;;5086545;28;20495;-67
2023/07/25 11:49:16;;;;;;;6.20;3.73;;;17.10;99.90;;;;;;5086685;28;20461;-67
2023/07/25 11:51:44;;;;;;;5.47;3.70;;;17.40;99.90;;;;;;5073211;28;20510;-66
2023/07/25 11:54:13;;;;;;;3.77;3.17;;;17.50;99.90;;;;;;5066338;28;20532;-67
2023/07/25 11:56:41;;;;;;;5.97;3.77;;;17.70;99.90;;;;;;5065547;28;20458;-66
2023/07/25 11:59:12;;;;;;;6.23;4.00;;;18.20;99.90;;;;;;5061183;28;20470;-66
2023/07/25 12:01:39;;;;;;;5.50;3.37;;;18.70;99.90;;;;;;5060877;28;20454;-66
2023/07/25 12:04:15;;;;;;;6.60;2.90;;;19.50;99.90;;;;;;5061158;28;20471;-67
2023/07/25 12:06:42;;;;;;;6.87;3.53;;;19.30;99.90;;;;;;5058442;28;20504;-68
2023/07/25 12:09:10;;;;;;;3.47;3.17;;;18.90;99.90;;;;;;5058690;28;20884;-69
2023/07/25 12:11:48;;;;;;;4.57;2.93;;;18.70;99.90;;;;;;5058358;28;20553;-67
2023/07/25 12:14:15;;;;;;;7.20;4.00;;;18.60;99.90;;;;;;5058294;28;20516;-68
2023/07/25 12:16:45;;;;;;;4.90;3.07;;;18.60;99.90;;;;;;5056588;28;20437;-66
2023/07/25 12:19:14;;;;;;;7.13;3.70;;;18.40;99.90;;;;;;5057245;28;20510;-67
2023/07/25 12:21:44;;;;;;;7.23;3.10;;;18.20;99.90;;;;;;5058154;28;20458;-67
2023/07/25 12:24:12;;;;;;;5.47;3.57;;;18.40;99.90;;;;;;5057311;28;20462;-65
2023/07/25 12:26:48;;;;;;;7.63;3.60;;;17.90;99.90;;;;;;5056823;28;20604;-68
2023/07/25 12:29:16;;;;;;;6.23;3.73;;;17.50;99.90;;;;;;5059110;28;20813;-66
2023/07/25 12:31:44;;;;;;;6.83;3.47;;;17.40;99.90;;;;;;5064797;28;20454;-69
2023/07/25 12:34:12;;;;;;;10.77;3.60;;;17.00;99.90;;;;;;5062778;28;20482;-67
2023/07/25 12:36:39;;;;;;;5.43;3.40;;;16.70;99.90;;;;;;5065643;28;20432;-66
2023/07/25 12:39:07;;;;;;;5.60;3.53;;;16.70;99.90;;;;;;5064526;28;20790;-67
2023/07/25 12:41:34;;;;;;;5.63;2.80;;;16.50;99.90;;;;;;5067528;28;20465;-68
2023/07/25 12:44:03;;;;;;;4.83;2.80;;;16.40;99.90;;;;;;5072424;28;20465;-66
2023/07/25 12:46:30;;;;;;;4.53;3.40;;;16.40;99.90;;;;;;5068455;28;20500;-67
2023/07/25 12:48:57;;;;;;;7.63;2.97;;;16.40;99.90;;;;;;5061610;28;20458;-67
2023/07/25 12:51:25;;;;;;;5.83;2.80;;;16.60;99.90;;;;;;5080723;28;20493;-68